sensor_id;sensor_type;location;lat;lon;timestamp;pressure;altitude;pressure_sealevel;temperature;humidity
63535;BME280;55128;50.230;18.944;2022-11-15T00:03:32;98805.94;;;5.67;86.67
63535;BME280;55128;50.230;18.944;2022-11-15T00:08:32;98806.63;;;5.75;85.11
63535;BME280;55128;50.230;18.944;2022-11-15T00:13:33;98795.94;;;5.81;85.60
63535;BME280;55128;50.230;18.944;2022-11-15T00:18:34;98794.44;;;5.71;85.26
63535;BME280;55128;50.230;18.944;2022-11-15T00:23:34;98787.38;;;5.73;85.45
63535;BME280;55128;50.230;18.944;2022-11-15T00:28:35;98785.72;;;5.69;85.25
63535;BME280;55128;50.230;18.944;2022-11-15T00:33:35;98772.31;;;5.78;85.33
63535;BME280;55128;50.230;18.944;2022-11-15T00:38:38;98764.41;;;5.78;85.13
63535;BME280;55128;50.230;18.944;2022-11-15T00:43:38;98761.13;;;5.69;85.30
63535;BME280;55128;50.230;18.944;2022-11-15T00:48:40;98753.34;;;5.64;86.18
63535;BME280;55128;50.230;18.944;2022-11-15T00:53:40;98747.47;;;5.53;85.25
63535;BME280;55128;50.230;18.944;2022-11-15T00:58:41;98748.59;;;5.42;86.17
63535;BME280;55128;50.230;18.944;2022-11-15T01:03:41;98745.34;;;5.31;85.96
63535;BME280;55128;50.230;18.944;2022-11-15T01:08:42;98736.69;;;5.26;85.88
63535;BME280;55128;50.230;18.944;2022-11-15T01:13:42;98736.13;;;5.12;86.33
63535;BME280;55128;50.230;18.944;2022-11-15T01:18:44;98732.50;;;5.16;85.67
63535;BME280;55128;50.230;18.944;2022-11-15T01:23:45;98726.97;;;4.89;86.54
63535;BME280;55128;50.230;18.944;2022-11-15T01:28:45;98724.47;;;4.83;86.71
63535;BME280;55128;50.230;18.944;2022-11-15T01:33:47;98708.41;;;4.95;86.07
63535;BME280;55128;50.230;18.944;2022-11-15T01:38:55;98706.09;;;4.81;87.33
63535;BME280;55128;50.230;18.944;2022-11-15T01:44:28;98704.31;;;4.82;87.07
63535;BME280;55128;50.230;18.944;2022-11-15T01:49:20;98695.41;;;4.87;87.61
63535;BME280;55128;50.230;18.944;2022-11-15T01:54:22;98696.06;;;4.99;87.27
63535;BME280;55128;50.230;18.944;2022-11-15T01:59:23;98690.16;;;4.87;87.18
63535;BME280;55128;50.230;18.944;2022-11-15T02:04:29;98678.84;;;4.84;87.37
63535;BME280;55128;50.230;18.944;2022-11-15T02:09:31;98674.50;;;4.83;87.39
63535;BME280;55128;50.230;18.944;2022-11-15T02:14:33;98680.91;;;4.71;87.34
63535;BME280;55128;50.230;18.944;2022-11-15T02:25:37;98653.81;;;4.67;87.83
63535;BME280;55128;50.230;18.944;2022-11-15T02:31:04;98662.06;;;4.90;87.10
63535;BME280;55128;50.230;18.944;2022-11-15T02:36:21;98661.53;;;4.75;86.48
63535;BME280;55128;50.230;18.944;2022-11-15T02:41:35;98661.59;;;4.71;87.21
63535;BME280;55128;50.230;18.944;2022-11-15T02:46:43;98650.09;;;4.76;86.51
63535;BME280;55128;50.230;18.944;2022-11-15T02:52:04;98634.00;;;4.51;87.09
63535;BME280;55128;50.230;18.944;2022-11-15T02:57:16;98636.78;;;4.43;87.69
63535;BME280;55128;50.230;18.944;2022-11-15T03:13:12;98620.13;;;4.83;87.35
63535;BME280;55128;50.230;18.944;2022-11-15T03:18:23;98617.44;;;4.86;86.35
63535;BME280;55128;50.230;18.944;2022-11-15T03:23:30;98620.75;;;4.54;86.64
63535;BME280;55128;50.230;18.944;2022-11-15T03:28:36;98618.00;;;4.62;87.30
63535;BME280;55128;50.230;18.944;2022-11-15T03:33:37;98612.03;;;4.52;87.31
63535;BME280;55128;50.230;18.944;2022-11-15T03:38:39;98598.03;;;4.53;87.26
63535;BME280;55128;50.230;18.944;2022-11-15T03:43:52;98592.50;;;4.65;86.91
63535;BME280;55128;50.230;18.944;2022-11-15T03:48:59;98579.63;;;4.53;87.69
63535;BME280;55128;50.230;18.944;2022-11-15T03:54:04;98581.22;;;4.60;87.61
63535;BME280;55128;50.230;18.944;2022-11-15T03:59:05;98579.75;;;4.47;87.60
63535;BME280;55128;50.230;18.944;2022-11-15T04:04:05;98569.44;;;4.38;87.07
63535;BME280;55128;50.230;18.944;2022-11-15T04:09:06;98560.75;;;4.36;87.26
63535;BME280;55128;50.230;18.944;2022-11-15T04:14:06;98561.31;;;4.48;86.79
63535;BME280;55128;50.230;18.944;2022-11-15T04:19:07;98555.53;;;4.33;86.92
63535;BME280;55128;50.230;18.944;2022-11-15T04:24:26;98546.63;;;4.40;87.20
63535;BME280;55128;50.230;18.944;2022-11-15T04:29:26;98544.81;;;4.42;86.65
63535;BME280;55128;50.230;18.944;2022-11-15T04:34:36;98547.28;;;4.50;86.13
63535;BME280;55128;50.230;18.944;2022-11-15T04:39:39;98541.28;;;4.43;86.49
63535;BME280;55128;50.230;18.944;2022-11-15T04:44:40;98535.00;;;4.50;85.62
63535;BME280;55128;50.230;18.944;2022-11-15T04:49:41;98537.78;;;4.44;85.14
63535;BME280;55128;50.230;18.944;2022-11-15T04:54:41;98534.53;;;4.33;85.78
63535;BME280;55128;50.230;18.944;2022-11-15T04:59:42;98529.75;;;4.48;85.13
63535;BME280;55128;50.230;18.944;2022-11-15T05:04:43;98520.44;;;4.35;85.16
63535;BME280;55128;50.230;18.944;2022-11-15T05:09:44;98518.94;;;4.23;85.30
63535;BME280;55128;50.230;18.944;2022-11-15T05:14:44;98517.53;;;4.08;85.48
63535;BME280;55128;50.230;18.944;2022-11-15T05:19:45;98516.84;;;3.99;85.77
63535;BME280;55128;50.230;18.944;2022-11-15T05:24:45;98503.91;;;3.91;86.07
63535;BME280;55128;50.230;18.944;2022-11-15T05:29:46;98497.81;;;3.89;86.58
63535;BME280;55128;50.230;18.944;2022-11-15T05:34:47;98482.34;;;4.16;85.58
63535;BME280;55128;50.230;18.944;2022-11-15T05:39:47;98475.53;;;4.07;85.63
63535;BME280;55128;50.230;18.944;2022-11-15T05:44:49;98476.22;;;4.17;85.17
63535;BME280;55128;50.230;18.944;2022-11-15T05:49:51;98482.03;;;4.29;85.06
63535;BME280;55128;50.230;18.944;2022-11-15T05:54:52;98471.66;;;4.23;84.32
63535;BME280;55128;50.230;18.944;2022-11-15T05:59:54;98472.16;;;4.02;85.11
63535;BME280;55128;50.230;18.944;2022-11-15T06:04:55;98474.66;;;4.08;84.90
63535;BME280;55128;50.230;18.944;2022-11-15T06:09:55;98480.06;;;4.00;84.74
63535;BME280;55128;50.230;18.944;2022-11-15T06:14:56;98481.75;;;4.03;84.85
63535;BME280;55128;50.230;18.944;2022-11-15T06:19:57;98483.09;;;4.22;84.24
63535;BME280;55128;50.230;18.944;2022-11-15T06:24:57;98484.53;;;4.36;83.58
63535;BME280;55128;50.230;18.944;2022-11-15T06:29:58;98481.81;;;4.39;83.75
63535;BME280;55128;50.230;18.944;2022-11-15T06:34:58;98480.78;;;4.46;82.79
63535;BME280;55128;50.230;18.944;2022-11-15T06:39:59;98494.97;;;4.37;83.14
63535;BME280;55128;50.230;18.944;2022-11-15T06:44:59;98495.47;;;4.55;82.52
63535;BME280;55128;50.230;18.944;2022-11-15T06:50:00;98508.78;;;4.47;82.77
63535;BME280;55128;50.230;18.944;2022-11-15T06:55:01;98506.16;;;4.47;83.19
63535;BME280;55128;50.230;18.944;2022-11-15T07:00:03;98508.44;;;4.62;82.75
63535;BME280;55128;50.230;18.944;2022-11-15T07:05:04;98505.88;;;4.59;82.77
63535;BME280;55128;50.230;18.944;2022-11-15T07:10:05;98506.06;;;4.87;82.39
63535;BME280;55128;50.230;18.944;2022-11-15T07:15:06;98507.19;;;4.77;82.82
63535;BME280;55128;50.230;18.944;2022-11-15T07:20:07;98512.47;;;5.12;82.81
63535;BME280;55128;50.230;18.944;2022-11-15T07:25:08;98507.22;;;5.44;81.07
63535;BME280;55128;50.230;18.944;2022-11-15T07:30:10;98501.03;;;5.45;80.69
63535;BME280;55128;50.230;18.944;2022-11-15T07:35:10;98501.59;;;5.57;81.01
63535;BME280;55128;50.230;18.944;2022-11-15T07:40:12;98494.69;;;6.15;77.99
63535;BME280;55128;50.230;18.944;2022-11-15T07:45:12;98491.22;;;6.70;78.43
63535;BME280;55128;50.230;18.944;2022-11-15T07:50:13;98487.47;;;6.77;76.46
63535;BME280;55128;50.230;18.944;2022-11-15T07:55:14;98486.66;;;7.01;76.17
63535;BME280;55128;50.230;18.944;2022-11-15T08:00:15;98484.84;;;7.54;76.88
63535;BME280;55128;50.230;18.944;2022-11-15T08:05:16;98481.72;;;8.37;74.10
63535;BME280;55128;50.230;18.944;2022-11-15T08:10:16;98477.63;;;8.52;73.09
63535;BME280;55128;50.230;18.944;2022-11-15T08:15:19;98468.63;;;8.78;70.30
63535;BME280;55128;50.230;18.944;2022-11-15T08:20:19;98464.00;;;10.05;68.52
63535;BME280;55128;50.230;18.944;2022-11-15T08:25:20;98478.72;;;13.33;59.15
63535;BME280;55128;50.230;18.944;2022-11-15T08:30:21;98491.38;;;14.73;54.38
63535;BME280;55128;50.230;18.944;2022-11-15T08:35:21;98476.63;;;16.24;48.41
63535;BME280;55128;50.230;18.944;2022-11-15T08:40:22;98487.81;;;17.52;46.57
63535;BME280;55128;50.230;18.944;2022-11-15T08:45:23;98483.31;;;19.31;47.65
63535;BME280;55128;50.230;18.944;2022-11-15T08:50:23;98485.91;;;19.96;41.04
63535;BME280;55128;50.230;18.944;2022-11-15T08:55:24;98480.59;;;20.87;39.62
63535;BME280;55128;50.230;18.944;2022-11-15T09:00:24;98482.63;;;21.63;36.37
63535;BME280;55128;50.230;18.944;2022-11-15T09:05:26;98472.97;;;21.70;36.22
63535;BME280;55128;50.230;18.944;2022-11-15T09:10:26;98484.16;;;22.87;35.78
63535;BME280;55128;50.230;18.944;2022-11-15T09:15:27;98480.97;;;22.56;36.02
63535;BME280;55128;50.230;18.944;2022-11-15T09:20:30;98464.44;;;24.11;33.04
63535;BME280;55128;50.230;18.944;2022-11-15T09:25:51;98457.22;;;24.54;31.02
63535;BME280;55128;50.230;18.944;2022-11-15T09:31:02;98452.09;;;23.46;32.16
63535;BME280;55128;50.230;18.944;2022-11-15T09:36:08;98435.13;;;25.16;29.83
63535;BME280;55128;50.230;18.944;2022-11-15T09:51:37;98419.03;;;25.23;30.47
63535;BME280;55128;50.230;18.944;2022-11-15T09:56:47;98405.44;;;25.48;29.64
63535;BME280;55128;50.230;18.944;2022-11-15T10:07:21;98385.22;;;22.93;32.54
63535;BME280;55128;50.230;18.944;2022-11-15T10:12:25;98386.75;;;21.77;35.27
63535;BME280;55128;50.230;18.944;2022-11-15T10:27:56;98369.63;;;17.06;46.42
63535;BME280;55128;50.230;18.944;2022-11-15T10:32:57;98366.56;;;17.00;46.91
63535;BME280;55128;50.230;18.944;2022-11-15T10:38:09;98353.47;;;16.36;49.09
63535;BME280;55128;50.230;18.944;2022-11-15T10:53:33;98349.16;;;17.17;48.83
63535;BME280;55128;50.230;18.944;2022-11-15T10:58:49;98332.09;;;17.06;48.07
63535;BME280;55128;50.230;18.944;2022-11-15T11:10:22;98327.50;;;16.60;48.49
63535;BME280;55128;50.230;18.944;2022-11-15T11:15:26;98322.97;;;16.49;49.56
63535;BME280;55128;50.230;18.944;2022-11-15T11:20:58;98319.91;;;16.43;49.78
63535;BME280;55128;50.230;18.944;2022-11-15T11:26:27;98314.19;;;16.47;50.11
63535;BME280;55128;50.230;18.944;2022-11-15T11:36:51;98294.59;;;16.23;50.95
63535;BME280;55128;50.230;18.944;2022-11-15T11:47:22;98292.03;;;15.47;53.61
63535;BME280;55128;50.230;18.944;2022-11-15T11:52:28;98281.13;;;15.25;54.98
63535;BME280;55128;50.230;18.944;2022-11-15T12:03:10;98263.38;;;14.60;56.21
63535;BME280;55128;50.230;18.944;2022-11-15T12:08:43;98247.72;;;14.53;57.66
63535;BME280;55128;50.230;18.944;2022-11-15T12:13:42;98242.69;;;14.49;57.66
63535;BME280;55128;50.230;18.944;2022-11-15T12:18:47;98239.72;;;14.53;57.86
63535;BME280;55128;50.230;18.944;2022-11-15T12:23:53;98235.94;;;14.30;58.55
63535;BME280;55128;50.230;18.944;2022-11-15T12:29:04;98242.06;;;14.05;59.71
63535;BME280;55128;50.230;18.944;2022-11-15T12:34:34;98226.00;;;13.92;60.38
63535;BME280;55128;50.230;18.944;2022-11-15T12:56:18;98196.75;;;13.64;61.54
63535;BME280;55128;50.230;18.944;2022-11-15T13:06:39;98176.34;;;13.21;63.19
63535;BME280;55128;50.230;18.944;2022-11-15T13:11:44;98175.91;;;13.14;63.27
63535;BME280;55128;50.230;18.944;2022-11-15T13:16:47;98185.91;;;12.96;63.64
63535;BME280;55128;50.230;18.944;2022-11-15T13:21:49;98186.50;;;12.87;64.41
63535;BME280;55128;50.230;18.944;2022-11-15T13:27:15;98179.81;;;12.80;65.04
63535;BME280;55128;50.230;18.944;2022-11-15T13:32:19;98171.38;;;12.73;65.34
63535;BME280;55128;50.230;18.944;2022-11-15T13:42:21;98162.03;;;12.52;65.87
63535;BME280;55128;50.230;18.944;2022-11-15T13:47:25;98154.16;;;12.64;65.66
63535;BME280;55128;50.230;18.944;2022-11-15T13:52:32;98158.44;;;12.53;65.95
63535;BME280;55128;50.230;18.944;2022-11-15T13:57:49;98152.34;;;12.51;66.74
63535;BME280;55128;50.230;18.944;2022-11-15T14:02:51;98145.44;;;12.48;66.56
63535;BME280;55128;50.230;18.944;2022-11-15T14:07:57;98145.09;;;12.38;66.69
63535;BME280;55128;50.230;18.944;2022-11-15T14:12:59;98141.84;;;12.19;68.40
63535;BME280;55128;50.230;18.944;2022-11-15T14:18:04;98135.38;;;12.09;68.35
63535;BME280;55128;50.230;18.944;2022-11-15T14:23:26;98138.34;;;12.33;67.67
63535;BME280;55128;50.230;18.944;2022-11-15T14:28:31;98131.03;;;12.36;67.50
63535;BME280;55128;50.230;18.944;2022-11-15T14:33:34;98121.63;;;12.31;66.47
63535;BME280;55128;50.230;18.944;2022-11-15T14:38:36;98120.47;;;12.35;67.20
63535;BME280;55128;50.230;18.944;2022-11-15T14:43:37;98110.94;;;12.02;67.22
63535;BME280;55128;50.230;18.944;2022-11-15T14:48:38;98106.47;;;12.02;67.82
63535;BME280;55128;50.230;18.944;2022-11-15T14:53:40;98107.53;;;11.84;69.26
63535;BME280;55128;50.230;18.944;2022-11-15T14:58:41;98093.56;;;11.96;68.40
63535;BME280;55128;50.230;18.944;2022-11-15T15:03:45;98083.28;;;11.90;68.77
63535;BME280;55128;50.230;18.944;2022-11-15T15:08:46;98082.91;;;11.66;69.47
63535;BME280;55128;50.230;18.944;2022-11-15T15:13:48;98080.72;;;11.73;67.89
63535;BME280;55128;50.230;18.944;2022-11-15T15:18:49;98075.63;;;11.70;69.15
63535;BME280;55128;50.230;18.944;2022-11-15T15:23:51;98072.63;;;11.29;70.63
63535;BME280;55128;50.230;18.944;2022-11-15T15:28:51;98066.00;;;11.37;69.63
63535;BME280;55128;50.230;18.944;2022-11-15T15:33:52;98061.22;;;11.27;70.84
63535;BME280;55128;50.230;18.944;2022-11-15T15:38:53;98065.53;;;11.14;71.28
63535;BME280;55128;50.230;18.944;2022-11-15T15:43:54;98064.94;;;11.09;72.09
63535;BME280;55128;50.230;18.944;2022-11-15T15:48:54;98059.13;;;10.86;71.92
63535;BME280;55128;50.230;18.944;2022-11-15T15:53:55;98059.06;;;10.72;72.48
63535;BME280;55128;50.230;18.944;2022-11-15T15:58:58;98059.06;;;10.72;72.00
63535;BME280;55128;50.230;18.944;2022-11-15T16:04:00;98065.72;;;10.63;72.85
63535;BME280;55128;50.230;18.944;2022-11-15T16:09:02;98059.94;;;10.57;72.68
63535;BME280;55128;50.230;18.944;2022-11-15T16:14:03;98052.38;;;10.65;71.92
63535;BME280;55128;50.230;18.944;2022-11-15T16:19:04;98058.19;;;10.56;72.53
63535;BME280;55128;50.230;18.944;2022-11-15T16:24:04;98067.47;;;10.64;72.56
63535;BME280;55128;50.230;18.944;2022-11-15T16:29:05;98065.56;;;10.66;72.64
63535;BME280;55128;50.230;18.944;2022-11-15T16:34:07;98061.63;;;10.58;73.17
63535;BME280;55128;50.230;18.944;2022-11-15T16:39:11;98053.47;;;10.11;74.94
63535;BME280;55128;50.230;18.944;2022-11-15T16:44:13;98047.16;;;10.30;73.77
63535;BME280;55128;50.230;18.944;2022-11-15T16:49:14;98044.41;;;10.33;73.99
63535;BME280;55128;50.230;18.944;2022-11-15T16:54:15;98050.13;;;10.41;73.80
63535;BME280;55128;50.230;18.944;2022-11-15T16:59:16;98041.84;;;10.47;73.58
63535;BME280;55128;50.230;18.944;2022-11-15T17:04:18;98045.00;;;10.54;73.20
63535;BME280;55128;50.230;18.944;2022-11-15T17:09:20;98038.50;;;10.60;72.80
63535;BME280;55128;50.230;18.944;2022-11-15T17:14:24;98034.88;;;10.29;74.43
63535;BME280;55128;50.230;18.944;2022-11-15T17:19:25;98033.06;;;10.29;74.62
63535;BME280;55128;50.230;18.944;2022-11-15T17:24:26;98021.56;;;10.46;73.44
63535;BME280;55128;50.230;18.944;2022-11-15T17:29:27;98013.59;;;10.46;73.68
63535;BME280;55128;50.230;18.944;2022-11-15T17:34:27;98011.72;;;10.33;74.25
63535;BME280;55128;50.230;18.944;2022-11-15T17:39:29;98000.84;;;10.37;74.43
63535;BME280;55128;50.230;18.944;2022-11-15T17:44:31;98001.88;;;10.17;75.00
63535;BME280;55128;50.230;18.944;2022-11-15T17:49:31;97987.09;;;10.29;74.46
63535;BME280;55128;50.230;18.944;2022-11-15T17:54:34;97971.66;;;10.04;75.56
63535;BME280;55128;50.230;18.944;2022-11-15T17:59:34;97967.91;;;9.92;76.23
63535;BME280;55128;50.230;18.944;2022-11-15T18:04:35;97964.59;;;10.04;75.38
63535;BME280;55128;50.230;18.944;2022-11-15T18:09:35;97959.28;;;10.04;75.64
63535;BME280;55128;50.230;18.944;2022-11-15T18:14:36;97951.91;;;10.09;75.28
63535;BME280;55128;50.230;18.944;2022-11-15T18:19:37;97942.25;;;10.08;74.44
63535;BME280;55128;50.230;18.944;2022-11-15T18:24:38;97931.88;;;9.88;75.33
63535;BME280;55128;50.230;18.944;2022-11-15T18:29:40;97929.19;;;9.72;75.84
63535;BME280;55128;50.230;18.944;2022-11-15T18:34:41;97936.91;;;9.77;76.20
63535;BME280;55128;50.230;18.944;2022-11-15T18:39:41;97953.03;;;9.89;75.23
63535;BME280;55128;50.230;18.944;2022-11-15T18:44:42;97943.34;;;9.88;75.61
63535;BME280;55128;50.230;18.944;2022-11-15T18:49:43;97946.09;;;10.03;75.27
63535;BME280;55128;50.230;18.944;2022-11-15T18:54:43;97954.31;;;10.14;74.99
63535;BME280;55128;50.230;18.944;2022-11-15T18:59:44;97952.03;;;10.08;74.80
63535;BME280;55128;50.230;18.944;2022-11-15T19:04:44;97950.56;;;10.02;74.96
63535;BME280;55128;50.230;18.944;2022-11-15T19:09:45;97942.91;;;9.80;75.52
63535;BME280;55128;50.230;18.944;2022-11-15T19:14:45;97944.81;;;9.61;76.63
63535;BME280;55128;50.230;18.944;2022-11-15T19:19:46;97953.16;;;9.70;76.43
63535;BME280;55128;50.230;18.944;2022-11-15T19:24:47;97941.09;;;9.47;77.02
63535;BME280;55128;50.230;18.944;2022-11-15T19:29:47;97938.63;;;9.44;77.33
63535;BME280;55128;50.230;18.944;2022-11-15T19:34:48;97948.56;;;9.57;76.96
63535;BME280;55128;50.230;18.944;2022-11-15T19:39:48;97933.00;;;9.84;75.87
63535;BME280;55128;50.230;18.944;2022-11-15T19:44:49;97936.22;;;9.89;75.36
63535;BME280;55128;50.230;18.944;2022-11-15T19:49:49;97931.97;;;9.86;75.87
63535;BME280;55128;50.230;18.944;2022-11-15T19:54:50;97921.63;;;9.82;76.00
63535;BME280;55128;50.230;18.944;2022-11-15T19:59:55;97925.53;;;9.75;75.81
63535;BME280;55128;50.230;18.944;2022-11-15T20:04:58;97920.06;;;9.78;76.06
63535;BME280;55128;50.230;18.944;2022-11-15T20:09:59;97913.84;;;9.95;75.85
63535;BME280;55128;50.230;18.944;2022-11-15T20:14:59;97901.72;;;10.06;75.16
63535;BME280;55128;50.230;18.944;2022-11-15T20:20:01;97897.53;;;10.02;75.20
63535;BME280;55128;50.230;18.944;2022-11-15T20:25:02;97895.44;;;10.07;75.35
63535;BME280;55128;50.230;18.944;2022-11-15T20:30:03;97895.53;;;10.22;74.26
63535;BME280;55128;50.230;18.944;2022-11-15T20:35:04;97888.88;;;10.15;74.53
63535;BME280;55128;50.230;18.944;2022-11-15T20:40:05;97892.81;;;10.07;74.51
63535;BME280;55128;50.230;18.944;2022-11-15T20:45:06;97886.31;;;10.29;73.99
63535;BME280;55128;50.230;18.944;2022-11-15T20:50:07;97881.34;;;10.39;73.88
63535;BME280;55128;50.230;18.944;2022-11-15T20:55:09;97881.31;;;10.23;74.14
63535;BME280;55128;50.230;18.944;2022-11-15T21:00:10;97879.28;;;10.28;74.31
63535;BME280;55128;50.230;18.944;2022-11-15T21:05:11;97886.16;;;10.32;74.13
63535;BME280;55128;50.230;18.944;2022-11-15T21:10:11;97879.75;;;10.36;74.12
63535;BME280;55128;50.230;18.944;2022-11-15T21:15:32;97873.47;;;10.37;73.84
63535;BME280;55128;50.230;18.944;2022-11-15T21:20:33;97868.50;;;10.15;74.87
63535;BME280;55128;50.230;18.944;2022-11-15T21:25:34;97855.84;;;10.20;74.45
63535;BME280;55128;50.230;18.944;2022-11-15T21:30:35;97849.16;;;10.13;74.59
63535;BME280;55128;50.230;18.944;2022-11-15T21:35:35;97852.69;;;10.14;74.69
63535;BME280;55128;50.230;18.944;2022-11-15T21:40:37;97844.19;;;10.23;74.21
63535;BME280;55128;50.230;18.944;2022-11-15T21:45:38;97844.91;;;10.10;74.69
63535;BME280;55128;50.230;18.944;2022-11-15T21:50:38;97843.38;;;10.06;74.62
63535;BME280;55128;50.230;18.944;2022-11-15T21:55:39;97836.94;;;10.10;74.78
63535;BME280;55128;50.230;18.944;2022-11-15T22:00:40;97825.97;;;10.17;74.90
63535;BME280;55128;50.230;18.944;2022-11-15T22:05:59;97819.81;;;10.32;74.22
63535;BME280;55128;50.230;18.944;2022-11-15T22:11:00;97826.91;;;10.47;73.80
63535;BME280;55128;50.230;18.944;2022-11-15T22:16:01;97817.63;;;10.55;73.27
63535;BME280;55128;50.230;18.944;2022-11-15T22:21:10;97806.88;;;10.26;73.86
63535;BME280;55128;50.230;18.944;2022-11-15T22:26:14;97803.13;;;10.30;74.46
63535;BME280;55128;50.230;18.944;2022-11-15T22:31:15;97799.69;;;10.28;74.56
63535;BME280;55128;50.230;18.944;2022-11-15T22:36:16;97790.63;;;10.32;74.32
63535;BME280;55128;50.230;18.944;2022-11-15T22:41:17;97778.38;;;9.99;75.62
63535;BME280;55128;50.230;18.944;2022-11-15T22:46:17;97766.94;;;9.83;76.48
63535;BME280;55128;50.230;18.944;2022-11-15T22:51:18;97764.38;;;9.65;77.33
63535;BME280;55128;50.230;18.944;2022-11-15T22:56:18;97762.00;;;9.77;77.21
63535;BME280;55128;50.230;18.944;2022-11-15T23:01:20;97756.94;;;9.88;77.17
63535;BME280;55128;50.230;18.944;2022-11-15T23:06:21;97752.63;;;10.01;76.80
63535;BME280;55128;50.230;18.944;2022-11-15T23:11:22;97761.19;;;10.06;76.47
63535;BME280;55128;50.230;18.944;2022-11-15T23:16:41;97738.59;;;9.99;76.48
63535;BME280;55128;50.230;18.944;2022-11-15T23:21:44;97732.91;;;9.75;77.26
63535;BME280;55128;50.230;18.944;2022-11-15T23:27:11;97730.44;;;9.72;77.47
63535;BME280;55128;50.230;18.944;2022-11-15T23:32:17;97722.84;;;9.66;77.75
63535;BME280;55128;50.230;18.944;2022-11-15T23:37:36;97719.66;;;9.91;77.00
63535;BME280;55128;50.230;18.944;2022-11-15T23:42:37;97716.81;;;9.94;76.92
63535;BME280;55128;50.230;18.944;2022-11-15T23:47:37;97712.31;;;10.10;76.48
63535;BME280;55128;50.230;18.944;2022-11-15T23:52:38;97709.78;;;10.23;75.81
63535;BME280;55128;50.230;18.944;2022-11-15T23:57:38;97708.06;;;10.22;76.50
